Impacts TAF Board INFO
FOR SITUATIONAL AWARENESS. NOT TO BE USED FOR FLIGHT PLANNING PURPOSES.
IDs:

KMSY - New Orleans/Armstron, LA, US

Issued at 1734 UTC 19 Feb 2018
Updated at 2206 UTC 19 Feb 2018
Potential Impact None Slight Moderate High
Time<<20/11Z 20/12Z 20/13Z 20/14Z 20/15Z 20/16Z 20/17Z 20/18Z 20/19Z 20/20Z 20/21Z 20/22Z 20/23Z>>
Type PRVL PRVL PRVL PRVL PRVL PRVL PRVL PRVL PRVL PRVL PRVL PRVL PRVL
VIS 5 5 5 5 5 >6 >6 >6 >6 >6 >6 >6 >6
CIG 15 15 15 15 15 30 30 30 30 30 30 30 30
Cover BKN BKN BKN BKN BKN BKN BKN BKN BKN BKN BKN BKN BKN
FltCat MVFR MVFR MVFR MVFR MVFR MVFR MVFR MVFR MVFR MVFR MVFR MVFR MVFR
WX BR BR BR BR BR -- -- -- -- -- -- -- --
WDir 140 140 140 140 140 160 160 160 160 160 160 160 160
WSpd 7 7 7 7 7 15 15 15 15 15 15 15 15
WGst -- -- -- -- -- 20 20 20 20 20 20 20 20

Raw TAF
KMSY 191734Z 1918/2024 16014KT P6SM FEW030
  FM200300 14008KT P6SM BKN045
  FM200700 14007KT 5SM BR BKN015
  FM201600 16015G20KT P6SM BKN030


METAR Board
Radar Display
Forecast Discussion

FOR SITUATIONAL AWARENESS. NOT TO BE USED FOR FLIGHT PLANNING PURPOSES.